Paris Le Bourget, France

11:52 AM CEST on June 26, 2017 (GMT +0200)
Le Bourget

Weather History for LFPB - February, 2014

Change the Weather History Date:

Friday, February 21, 2014

  Actual Average Record
Temperature  
Mean Temperature 47 °F -  
Max Temperature 52 °F 51 °F 57 °F (2007)
Min Temperature 42 °F 38 °F 28 °F (2012)
Degree Days  
Heating Degree Days 18    
Moisture  
Dew Point 37 °F    
Average Humidity 67    
Maximum Humidity 93    
Minimum Humidity 40    
Precipitation  
Precipitation 0.01 in 0.07 in - ()
Sea Level Pressure  
Sea Level Pressure 29.81 in    
Wind  
Wind Speed 11 mph ()    
Max Wind Speed 17 mph    
Max Gust Speed -    
Visibility 6.3 miles    
Events Rain    
Averages and records for this station are not official NWS values.
T = Trace of Precipitation, MM = Missing Value Source: Averaged Metar Reports

Daily Weather History Graph

Daily Weather History Graph

Search for Another Location

Airport or City:

Trip Planner

Search our weather history database for the weather conditions in past years. The results will help you decide how hot, cold, wet, or windy it might be!

Date:

Astronomy

Feb. 21, 2014 Rise Set
Actual Time 7:48 AM CET 6:20 PM CET
Civil Twilight 7:15 AM CET 6:52 PM CET
Nautical Twilight 6:39 AM CET 7:29 PM CET
Astronomical Twilight 6:02 AM CET 8:06 PM CET
Moon 12:29 AM CET (2/21) 10:27 AM CET (2/21)
Length of Visible Light 11h 36m
Length of Day
10h 32m
Waning Gibbous, 63% of the Moon is Illuminated
Feb 21
Waning Gibbous
Feb 22
Last Quarter
Mar 1
New
Mar 8
First Quarter
Mar 16
Full

Hourly Weather History & Observations

Time (CET) Temp. Windchill Dew Point Humidity Pressure Visibility Wind Dir Wind Speed Gust Speed Precip Events Conditions
12:00 AM 48 °F - 43 °F 76% 29.74 in 37 mi SW 9.2 mph - -   Clear
12:00 AM 48.2 °F - 42.8 °F 82% 29.71 in 6.2 mi SW 9.2 mph - N/A   Mostly Cloudy
12:30 AM 48.2 °F - 42.8 °F 82% 29.71 in 6.2 mi SW 11.5 mph - N/A   Overcast
1:00 AM 48 °F - 42 °F 73% 29.73 in 34 mi SW 12.7 mph - -   Clear
1:00 AM 48.2 °F - 42.8 °F 82% 29.71 in 6.2 mi SW 12.7 mph - N/A   Overcast
1:30 AM 46.4 °F 41.5 °F 41.0 °F 81% 29.71 in 6.2 mi SW 10.4 mph - N/A   Partly Cloudy
2:00 AM 47 °F - 42 °F 75% 29.74 in 37 mi SW 11.5 mph - -   Clear
2:00 AM 46.4 °F 41.1 °F 41.0 °F 81% 29.71 in 6.2 mi SW 11.5 mph - N/A   Unknown
2:30 AM 46.4 °F 41.1 °F 41.0 °F 81% 29.71 in 6.2 mi SW 11.5 mph - N/A   Mostly Cloudy
3:00 AM 46 °F - 40 °F 72% 29.74 in 37 mi WSW 11.5 mph - -   Clear
3:00 AM 46.4 °F 41.1 °F 39.2 °F 76% 29.71 in 6.2 mi WSW 11.5 mph - N/A   Mostly Cloudy
3:30 AM 46.4 °F 41.5 °F 41.0 °F 81% 29.71 in 6.2 mi SW 10.4 mph - N/A   Mostly Cloudy
4:00 AM 44 °F - 40 °F 83% 29.73 in 7 mi SW 10.4 mph - - Rain Light Rain
4:00 AM 44.6 °F 39.2 °F 41.0 °F 87% 29.71 in 6.2 mi SW 10.4 mph - N/A Rain Light Rain
4:30 AM 42.8 °F 39.3 °F 41.0 °F 93% 29.71 in 6.2 mi SW 5.8 mph - N/A   Mostly Cloudy
5:00 AM 44.6 °F 38.8 °F 41.0 °F 87% 29.71 in 6.2 mi SW 11.5 mph - N/A   Overcast
5:30 AM 44.6 °F 38.8 °F 41.0 °F 87% 29.71 in 6.2 mi SW 11.5 mph - N/A   Mostly Cloudy
6:00 AM 45 °F - 39 °F 72% 29.75 in 37 mi WSW 12.7 mph - -   Clear
6:00 AM 44.6 °F 38.4 °F 39.2 °F 81% 29.74 in 6.2 mi WSW 12.7 mph - N/A   Mostly Cloudy
6:30 AM 44.6 °F 38.8 °F 39.2 °F 81% 29.74 in 6.2 mi SW 11.5 mph - N/A   Overcast
7:00 AM 44 °F - 38 °F 73% 29.75 in 37 mi SW 12.7 mph - -   Clear
7:00 AM 44.6 °F 38.4 °F 37.4 °F 76% 29.74 in 6.2 mi SW 12.7 mph - N/A   Overcast
7:30 AM 44.6 °F 38.1 °F 37.4 °F 76% 29.74 in 6.2 mi WSW 13.8 mph - N/A   Mostly Cloudy
8:00 AM 44 °F - 37 °F 70% 29.78 in 37 mi WSW 11.5 mph - -   Clear
8:00 AM 44.6 °F 38.8 °F 37.4 °F 76% 29.77 in 6.2 mi WSW 11.5 mph - N/A   Overcast
8:30 AM 44.6 °F 37.8 °F 37.4 °F 76% 29.77 in 6.2 mi WSW 15.0 mph - N/A   Overcast
9:00 AM 44 °F - 37 °F 68% 29.80 in 37 mi WSW 13.8 mph - -   Clear
9:00 AM 44.6 °F 38.1 °F 37.4 °F 76% 29.77 in 6.2 mi WSW 13.8 mph - N/A   Overcast
9:30 AM 44.6 °F 38.1 °F 37.4 °F 76% 29.80 in 6.2 mi WSW 13.8 mph - N/A   Mostly Cloudy
10:00 AM 45 °F - 37 °F 66% 29.84 in 31 mi West 12.7 mph - -   Clear
10:00 AM 44.6 °F 38.4 °F 37.4 °F 76% 29.83 in 6.2 mi West 12.7 mph - N/A   Mostly Cloudy
10:30 AM 46.4 °F 40.1 °F 37.4 °F 71% 29.83 in 6.2 mi WSW 15.0 mph - N/A   Mostly Cloudy
11:00 AM 46 °F - 38 °F 65% 29.85 in 34 mi West 12.7 mph - -   Clear
11:00 AM 46.4 °F 40.7 °F 37.4 °F 71% 29.83 in 6.2 mi West 12.7 mph - N/A   Overcast
11:30 AM 48.2 °F - 37.4 °F 66% 29.83 in 6.2 mi WSW 13.8 mph - N/A   Mostly Cloudy
12:00 PM 48 °F - 37 °F 55% 29.87 in 11 mi West 12.7 mph - -   Clear
12:00 PM 48.2 °F - 37.4 °F 66% 29.86 in 6.2 mi West 12.7 mph - N/A   Mostly Cloudy
12:30 PM 50.0 °F - 37.4 °F 62% 29.86 in 6.2 mi WSW 13.8 mph - N/A   Mostly Cloudy
1:00 PM 49 °F - 35 °F 47% 29.87 in 28 mi WSW 13.8 mph - -   Clear
1:00 PM 50.0 °F - 35.6 °F 58% 29.86 in 6.2 mi WSW 13.8 mph - N/A   Scattered Clouds
1:30 PM 48.2 °F - 33.8 °F 58% 29.86 in 6.2 mi WSW 16.1 mph - N/A   Mostly Cloudy
2:00 PM 50 °F - 33 °F 40% 29.86 in 34 mi WSW 15.0 mph - -   Clear
2:00 PM 50.0 °F - 33.8 °F 54% 29.86 in 6.2 mi WSW 15.0 mph - N/A   Overcast
2:30 PM 51.8 °F - 33.8 °F 50% 29.86 in 6.2 mi WSW 17.3 mph - N/A   Overcast
3:00 PM 51 °F - 35 °F 43% 29.86 in 37 mi West 11.5 mph - -   Clear
3:00 PM 51.8 °F - 35.6 °F 54% 29.86 in 6.2 mi West 11.5 mph - N/A   Overcast
3:30 PM 50.0 °F - 32.0 °F 50% 29.86 in 6.2 mi SW 17.3 mph - N/A   Overcast
4:00 PM 50 °F - 34 °F 41% 29.86 in 34 mi WSW 13.8 mph - -   Clear
4:00 PM 50.0 °F - 33.8 °F 54% 29.86 in 6.2 mi WSW 13.8 mph - N/A   Mostly Cloudy
4:30 PM 50.0 °F - 33.8 °F 54% 29.86 in 6.2 mi SW 11.5 mph - N/A   Overcast
5:00 PM 50 °F - 33 °F 40% 29.86 in 28 mi SW 12.7 mph - -   Clear
5:00 PM 50.0 °F - 33.8 °F 54% 29.86 in 6.2 mi SW 12.7 mph - N/A   Mostly Cloudy
5:30 PM 50.0 °F - 33.8 °F 54% 29.86 in 6.2 mi SW 11.5 mph - N/A   Mostly Cloudy
6:00 PM 48 °F - 33 °F 45% 29.87 in 34 mi SW 16.1 mph - -   Clear
6:00 PM 48.2 °F - 33.8 °F 58% 29.86 in 6.2 mi SW 16.1 mph - N/A   Partly Cloudy
6:30 PM 48.2 °F - 33.8 °F 58% 29.86 in 6.2 mi WSW 11.5 mph - N/A   Unknown
7:00 PM 46 °F - 34 °F 52% 29.89 in 37 mi SW 10.4 mph - -   Clear
7:00 PM 46.4 °F 41.5 °F 33.8 °F 62% 29.86 in 6.2 mi SW 10.4 mph - N/A   Unknown
7:30 PM 46.4 °F 41.1 °F 35.6 °F 66% 29.89 in 6.2 mi SW 11.5 mph - N/A   Unknown
8:00 PM 46 °F - 35 °F 55% 29.89 in 37 mi SSW 11.5 mph - -   Clear
8:00 PM 46.4 °F 41.1 °F 35.6 °F 66% 29.86 in 6.2 mi SSW 11.5 mph - N/A   Unknown
8:30 PM 46.4 °F 40.7 °F 33.8 °F 62% 29.89 in 6.2 mi SSW 12.7 mph - N/A   Unknown
9:00 PM 45 °F - 34 °F 56% 29.90 in 37 mi SW 12.7 mph - -   Clear
9:00 PM 44.6 °F 38.4 °F 33.8 °F 66% 29.89 in 6.2 mi SW 12.7 mph - N/A   Unknown
9:30 PM 44.6 °F 38.4 °F 35.6 °F 71% 29.89 in 6.2 mi SW 12.7 mph - N/A   Unknown
10:00 PM 44 °F - 35 °F 63% 29.91 in 37 mi SW 10.4 mph - -   Clear
10:00 PM 42.8 °F 37.0 °F 35.6 °F 76% 29.89 in 6.2 mi SW 10.4 mph - N/A   Unknown
10:30 PM 42.8 °F 37.5 °F 35.6 °F 76% 29.89 in 6.2 mi SSW 9.2 mph - N/A   Unknown
11:00 PM 44 °F - 36 °F 66% 29.91 in 34 mi SW 12.7 mph - -   Clear
11:00 PM 44.6 °F 38.4 °F 37.4 °F 76% 29.89 in 6.2 mi SW 12.7 mph - N/A   Unknown
11:30 PM 42.8 °F 36.2 °F 35.6 °F 76% 29.89 in 6.2 mi SW 12.7 mph - N/A   Unknown